Time;durP1;ratioP1;P1;durP2;ratioP2;P2;SDS_P1;SDS_P2;PMS_P1;PMS_P2;Temp;Humidity;BMP_temperature;BMP_pressure;BME280_temperature;BME280_humidity;BME280_pressure;Samples;Min_cycle;Max_cycle;Signal;HPM_P1;HPM_P2
2023/08/13 00:02:44;;;;;;;4.03;3.83;;;20.60;78.00;;;;;;6257667;28;20234;-87
2023/08/13 00:05:51;;;;;;;4.43;4.33;;;20.60;78.00;;;;;;6283363;28;20234;-84
2023/08/13 00:08:54;;;;;;;4.30;4.00;;;20.60;77.90;;;;;;6296000;28;20811;-86
2023/08/13 00:12:00;;;;;;;4.70;4.40;;;20.50;78.00;;;;;;6285192;28;20245;-88
2023/08/13 00:15:04;;;;;;;3.83;3.63;;;20.50;78.20;;;;;;6282924;28;20253;-88
2023/08/13 00:18:09;;;;;;;4.07;3.97;;;20.50;78.20;;;;;;6260627;28;20250;-86
2023/08/13 00:21:13;;;;;;;4.17;3.97;;;20.50;78.30;;;;;;6283017;28;20240;-86
2023/08/13 00:24:17;;;;;;;4.30;4.00;;;20.40;78.30;;;;;;6283902;28;20237;-85
2023/08/13 00:27:22;;;;;;;4.43;4.27;;;20.30;78.50;;;;;;6274538;28;20230;-86
2023/08/13 00:30:31;;;;;;;3.90;3.70;;;20.30;78.50;;;;;;6278268;28;20311;-86
2023/08/13 00:33:34;;;;;;;3.93;3.83;;;20.30;78.50;;;;;;6286920;28;20232;-86
2023/08/13 00:36:40;;;;;;;4.30;4.00;;;20.30;78.50;;;;;;6275793;28;20345;-86
2023/08/13 00:39:43;;;;;;;3.97;3.87;;;20.30;78.60;;;;;;6258227;28;20242;-86
2023/08/13 00:42:48;;;;;;;4.40;4.20;;;20.20;78.50;;;;;;6257855;28;20311;-88
2023/08/13 00:45:51;;;;;;;3.73;3.63;;;20.10;78.70;;;;;;6235893;28;20257;-88
2023/08/13 00:49:02;;;;;;;4.37;4.17;;;20.10;78.70;;;;;;6270566;28;20238;-83
2023/08/13 00:52:09;;;;;;;4.07;3.97;;;20.10;78.70;;;;;;6264656;28;20238;-86
2023/08/13 00:55:13;;;;;;;4.07;3.77;;;20.10;78.70;;;;;;6266248;28;20244;-86
2023/08/13 00:58:18;;;;;;;5.60;3.97;;;20.00;78.60;;;;;;6269967;28;20760;-87
2023/08/13 01:01:22;;;;;;;3.93;3.80;;;20.00;78.90;;;;;;6276918;28;20783;-86
2023/08/13 01:04:25;;;;;;;4.40;4.20;;;20.00;78.90;;;;;;6262804;28;20244;-86
2023/08/13 01:07:33;;;;;;;3.37;3.27;;;19.90;79.20;;;;;;6276463;28;20271;-85
2023/08/13 01:10:38;;;;;;;4.00;3.70;;;19.90;79.30;;;;;;6268106;28;20327;-85
2023/08/13 01:13:48;;;;;;;3.83;3.73;;;19.90;79.20;;;;;;6268185;28;20233;-86
2023/08/13 01:16:53;;;;;;;4.30;4.10;;;19.80;79.10;;;;;;6268008;28;20238;-86
2023/08/13 01:19:56;;;;;;;4.17;4.07;;;19.70;79.30;;;;;;6267207;28;20257;-85
2023/08/13 01:23:01;;;;;;;4.20;4.00;;;19.70;79.90;;;;;;6234162;28;20230;-85
2023/08/13 01:26:13;;;;;;;4.23;4.13;;;19.70;79.90;;;;;;6243493;28;20295;-85
2023/08/13 01:29:26;;;;;;;5.03;4.63;;;19.70;79.80;;;;;;6266836;28;21055;-84
2023/08/13 01:32:46;;;;;;;4.83;4.63;;;19.60;80.40;;;;;;6258993;28;20393;-83
2023/08/13 01:35:50;;;;;;;4.93;4.73;;;19.60;80.60;;;;;;6266552;28;20364;-85
2023/08/13 01:38:58;;;;;;;5.33;5.03;;;19.50;81.00;;;;;;6253122;28;20249;-85
2023/08/13 01:42:06;;;;;;;4.87;4.67;;;19.70;80.90;;;;;;6267867;28;20236;-87
2023/08/13 01:45:10;;;;;;;4.40;4.30;;;19.70;80.70;;;;;;6266453;28;20222;-85
2023/08/13 01:48:13;;;;;;;4.90;4.80;;;19.70;80.70;;;;;;6259790;28;20254;-88
2023/08/13 01:51:16;;;;;;;5.03;4.57;;;19.70;80.70;;;;;;6262975;28;20244;-84
2023/08/13 01:54:21;;;;;;;4.93;4.70;;;19.80;80.60;;;;;;6264487;28;20241;-87
2023/08/13 01:57:24;;;;;;;5.53;5.33;;;19.80;80.50;;;;;;6259358;28;20234;-87
2023/08/13 02:00:30;;;;;;;5.53;5.20;;;19.90;80.70;;;;;;6264945;28;20438;-86
2023/08/13 02:03:33;;;;;;;5.70;5.40;;;19.90;80.60;;;;;;6265091;28;20234;-86
2023/08/13 02:06:37;;;;;;;5.83;5.50;;;19.90;80.50;;;;;;6265568;28;20257;-86
2023/08/13 02:09:41;;;;;;;5.40;5.20;;;19.90;80.20;;;;;;6262002;28;20261;-84
2023/08/13 02:12:45;;;;;;;5.70;5.30;;;19.90;80.40;;;;;;6271246;28;20248;-87
2023/08/13 02:15:48;;;;;;;5.67;5.47;;;19.90;80.20;;;;;;6263450;28;20245;-87
2023/08/13 02:18:51;;;;;;;5.33;5.00;;;19.90;80.10;;;;;;6245514;28;20273;-87
2023/08/13 02:21:54;;;;;;;4.83;4.63;;;19.90;80.10;;;;;;6246765;28;20305;-86
2023/08/13 02:25:01;;;;;;;5.83;5.53;;;19.90;80.00;;;;;;6246796;28;20253;-86
2023/08/13 02:28:05;;;;;;;5.30;5.00;;;19.90;79.80;;;;;;6256738;28;20242;-86
2023/08/13 02:31:08;;;;;;;4.93;4.73;;;19.80;79.80;;;;;;6247210;28;20242;-86
2023/08/13 02:34:14;;;;;;;4.77;4.67;;;19.70;79.80;;;;;;6250363;28;20244;-86
2023/08/13 02:37:17;;;;;;;4.43;4.23;;;19.70;79.90;;;;;;6263320;28;20253;-85
2023/08/13 02:40:22;;;;;;;4.13;4.00;;;19.70;79.80;;;;;;6249493;28;20233;-87
2023/08/13 02:43:28;;;;;;;4.93;4.77;;;19.70;79.80;;;;;;6235554;28;20237;-85
2023/08/13 02:46:31;;;;;;;5.00;4.80;;;19.70;79.70;;;;;;6252180;28;20252;-85
2023/08/13 02:49:34;;;;;;;4.10;4.00;;;19.50;79.80;;;;;;6254691;28;20439;-85
2023/08/13 02:52:38;;;;;;;4.43;4.23;;;19.50;79.80;;;;;;6246153;28;20766;-85
2023/08/13 02:55:42;;;;;;;3.70;3.60;;;19.40;79.80;;;;;;6245690;28;20287;-84
2023/08/13 02:58:46;;;;;;;6.70;4.67;;;19.40;79.70;;;;;;6245925;28;20242;-87
2023/08/13 03:01:49;;;;;;;3.87;3.77;;;19.30;79.70;;;;;;6240111;28;20758;-86
2023/08/13 03:04:52;;;;;;;5.23;4.87;;;19.30;79.70;;;;;;6242630;28;20241;-86
2023/08/13 03:07:55;;;;;;;4.60;4.30;;;19.20;79.70;;;;;;6226204;28;20242;-84
2023/08/13 03:11:00;;;;;;;4.30;4.10;;;19.20;79.70;;;;;;6225129;28;20227;-84
2023/08/13 03:14:04;;;;;;;4.23;4.13;;;19.10;79.80;;;;;;6242537;28;20732;-84
2023/08/13 03:17:07;;;;;;;4.53;4.33;;;19.10;79.70;;;;;;6237973;28;20806;-86
2023/08/13 03:20:11;;;;;;;4.97;4.87;;;19.00;79.70;;;;;;6260602;28;20226;-86
2023/08/13 03:23:14;;;;;;;4.00;3.90;;;18.90;79.70;;;;;;6243995;28;20226;-84
2023/08/13 03:26:22;;;;;;;4.20;4.07;;;18.90;79.70;;;;;;6244404;28;20230;-84
2023/08/13 03:29:25;;;;;;;4.10;3.90;;;18.90;79.90;;;;;;6265967;28;20327;-86
2023/08/13 03:32:29;;;;;;;3.77;3.70;;;18.90;79.90;;;;;;6259839;28;20248;-86
2023/08/13 03:35:37;;;;;;;4.20;3.90;;;18.80;79.80;;;;;;6244497;28;20235;-84
2023/08/13 03:38:40;;;;;;;3.27;3.27;;;18.80;79.80;;;;;;6266115;28;20624;-78
2023/08/13 03:41:45;;;;;;;3.87;3.77;;;18.80;79.70;;;;;;6266272;28;20226;-78
2023/08/13 03:44:48;;;;;;;4.27;4.17;;;18.70;79.80;;;;;;6263295;28;20245;-78
2023/08/13 03:47:52;;;;;;;4.10;3.80;;;18.70;79.80;;;;;;6267766;28;20238;-80
2023/08/13 03:50:55;;;;;;;3.37;3.37;;;18.70;79.80;;;;;;6265285;28;20226;-79
2023/08/13 03:53:58;;;;;;;4.10;4.00;;;18.70;79.80;;;;;;6270770;28;20743;-78
2023/08/13 03:57:04;;;;;;;4.63;4.43;;;18.70;79.80;;;;;;6259976;28;20241;-79
2023/08/13 04:00:08;;;;;;;4.03;3.83;;;18.70;79.90;;;;;;6266372;28;20327;-77
2023/08/13 04:03:11;;;;;;;4.97;4.63;;;18.60;79.80;;;;;;6267253;28;20307;-78
2023/08/13 04:06:27;;;;;;;4.70;4.30;;;18.60;80.00;;;;;;6265978;28;20234;-78
2023/08/13 04:09:30;;;;;;;3.90;3.80;;;18.60;80.20;;;;;;6264847;28;20238;-78
2023/08/13 04:12:35;;;;;;;4.10;4.00;;;18.60;80.20;;;;;;6264979;28;20727;-79
2023/08/13 04:15:38;;;;;;;4.63;4.37;;;18.70;80.10;;;;;;6261734;28;20238;-82
2023/08/13 04:18:41;;;;;;;4.53;4.43;;;18.70;80.00;;;;;;6265586;28;20317;-80
2023/08/13 04:21:44;;;;;;;4.60;4.40;;;18.80;79.90;;;;;;6231659;28;20770;-77
2023/08/13 04:24:50;;;;;;;4.53;4.23;;;18.80;79.80;;;;;;6265619;28;20363;-77
2023/08/13 04:27:54;;;;;;;4.73;4.40;;;18.80;79.70;;;;;;6265419;28;20771;-78
2023/08/13 04:30:58;;;;;;;4.87;4.50;;;18.80;79.50;;;;;;6241650;28;20602;-83
2023/08/13 04:34:02;;;;;;;5.27;4.73;;;18.80;79.60;;;;;;6251436;28;20241;-80
2023/08/13 04:37:05;;;;;;;5.03;4.70;;;18.80;79.40;;;;;;6256549;28;20287;-81
2023/08/13 04:40:10;;;;;;;4.93;4.80;;;18.80;79.40;;;;;;6263808;28;20241;-80
2023/08/13 04:43:14;;;;;;;4.17;4.00;;;18.80;79.30;;;;;;6265193;28;20226;-81
2023/08/13 04:46:18;;;;;;;4.57;4.23;;;18.90;79.10;;;;;;6266766;28;20234;-79
2023/08/13 04:49:21;;;;;;;5.07;4.60;;;19.00;78.90;;;;;;6273420;28;20234;-82
2023/08/13 04:52:24;;;;;;;4.57;4.30;;;19.00;78.70;;;;;;6256239;28;20236;-82
2023/08/13 04:55:27;;;;;;;4.60;4.20;;;19.00;78.20;;;;;;6263504;28;20268;-81
2023/08/13 04:58:31;;;;;;;4.37;4.00;;;19.10;77.30;;;;;;6257670;28;20283;-80
2023/08/13 05:01:35;;;;;;;5.97;4.10;;;19.10;77.50;;;;;;6258385;28;20245;-79
2023/08/13 05:04:38;;;;;;;4.33;4.13;;;19.20;77.30;;;;;;6258203;28;20958;-80
2023/08/13 05:07:41;;;;;;;3.60;3.53;;;19.30;77.20;;;;;;6259898;28;20242;-81
2023/08/13 05:10:44;;;;;;;4.90;3.80;;;19.40;77.10;;;;;;6262156;28;20325;-80
2023/08/13 05:13:49;;;;;;;4.63;4.33;;;19.40;76.20;;;;;;6256150;28;20772;-82
2023/08/13 05:16:52;;;;;;;4.20;3.90;;;19.50;75.70;;;;;;6262588;28;20770;-82
2023/08/13 05:19:55;;;;;;;3.93;3.73;;;19.50;75.00;;;;;;6258084;28;20237;-81
2023/08/13 05:22:59;;;;;;;4.53;4.10;;;19.60;74.90;;;;;;6261080;28;20288;-82
2023/08/13 05:26:02;;;;;;;4.47;4.07;;;19.70;74.10;;;;;;6262233;28;20637;-83
2023/08/13 05:29:06;;;;;;;4.00;3.70;;;19.70;73.90;;;;;;6260522;28;20850;-81
2023/08/13 05:32:09;;;;;;;3.77;3.57;;;20.00;73.70;;;;;;6262502;28;20269;-81
2023/08/13 05:35:13;;;;;;;3.33;3.13;;;20.10;73.50;;;;;;6260949;28;20233;-81
2023/08/13 05:38:16;;;;;;;4.00;3.70;;;20.40;72.50;;;;;;6265368;28;20257;-81
2023/08/13 05:41:19;;;;;;;3.97;3.73;;;20.50;71.20;;;;;;6262117;28;20943;-82
2023/08/13 05:44:23;;;;;;;3.67;3.27;;;20.50;69.60;;;;;;6256724;28;20232;-81
2023/08/13 05:47:26;;;;;;;3.17;2.97;;;20.50;69.60;;;;;;6261002;28;20327;-81
2023/08/13 05:50:29;;;;;;;3.43;3.07;;;20.60;69.00;;;;;;6242654;28;20230;-82
2023/08/13 05:53:33;;;;;;;3.60;3.30;;;20.70;69.00;;;;;;6257774;28;20237;-80
2023/08/13 05:56:37;;;;;;;3.20;3.03;;;20.80;69.10;;;;;;6241717;28;20784;-82
2023/08/13 05:59:41;;;;;;;3.83;3.53;;;20.80;69.10;;;;;;6254316;28;20238;-83
2023/08/13 06:02:44;;;;;;;3.77;3.40;;;20.90;68.40;;;;;;6261518;28;20238;-82
2023/08/13 06:05:48;;;;;;;3.40;3.20;;;20.80;68.20;;;;;;6262822;28;20591;-82
2023/08/13 06:08:51;;;;;;;3.40;3.20;;;20.90;68.50;;;;;;6259996;28;20956;-81
2023/08/13 06:11:54;;;;;;;3.73;3.43;;;21.00;68.20;;;;;;6264713;28;20257;-78
2023/08/13 06:14:58;;;;;;;3.23;3.13;;;20.90;65.80;;;;;;6264899;28;20614;-81
2023/08/13 06:18:02;;;;;;;3.87;3.57;;;20.90;66.50;;;;;;6266576;28;20241;-79
2023/08/13 06:21:05;;;;;;;3.20;2.97;;;20.90;66.70;;;;;;6264231;28;20396;-80
2023/08/13 06:24:08;;;;;;;3.10;2.90;;;20.90;66.80;;;;;;6261197;28;20246;-81
2023/08/13 06:27:11;;;;;;;3.53;3.30;;;20.80;67.20;;;;;;6261227;28;20640;-83
2023/08/13 06:30:17;;;;;;;4.07;3.57;;;20.80;68.00;;;;;;6261932;28;20265;-84
2023/08/13 06:33:20;;;;;;;7.60;3.53;;;20.70;68.40;;;;;;6264452;28;20237;-82
2023/08/13 06:36:23;;;;;;;3.70;3.60;;;20.80;67.70;;;;;;6255865;28;20238;-81
2023/08/13 06:39:28;;;;;;;4.67;3.80;;;21.10;67.60;;;;;;6257820;28;20923;-81
2023/08/13 06:42:32;;;;;;;3.47;3.27;;;21.50;66.40;;;;;;6259120;28;20292;-80
2023/08/13 06:45:37;;;;;;;5.57;3.70;;;21.70;65.60;;;;;;6261893;28;20242;-81
2023/08/13 06:48:40;;;;;;;3.63;3.40;;;21.90;65.10;;;;;;6259880;28;20246;-81
2023/08/13 06:51:43;;;;;;;5.57;3.47;;;22.20;62.70;;;;;;6262070;28;20398;-82
2023/08/13 06:54:46;;;;;;;5.20;3.40;;;22.50;62.20;;;;;;6254961;28;20296;-81
2023/08/13 06:57:49;;;;;;;6.63;3.67;;;22.10;63.30;;;;;;6263094;28;20276;-82
2023/08/13 07:00:54;;;;;;;3.33;3.03;;;22.30;63.50;;;;;;6262390;28;20353;-82
2023/08/13 07:03:57;;;;;;;3.63;3.40;;;22.60;63.40;;;;;;6261052;28;20230;-83
2023/08/13 07:07:00;;;;;;;3.77;3.27;;;22.80;63.20;;;;;;6261356;28;20241;-82
2023/08/13 07:10:04;;;;;;;3.87;3.50;;;22.90;62.00;;;;;;6260536;28;20242;-85
2023/08/13 07:13:07;;;;;;;6.87;3.70;;;22.70;61.70;;;;;;6259395;28;20246;-84
2023/08/13 07:16:13;;;;;;;4.60;3.10;;;22.60;61.90;;;;;;6260500;28;20234;-81
2023/08/13 07:19:17;;;;;;;5.13;3.50;;;22.30;62.70;;;;;;6254444;28;20781;-81
2023/08/13 07:22:21;;;;;;;4.43;3.20;;;22.50;62.60;;;;;;6257240;28;20991;-80
2023/08/13 07:25:25;;;;;;;4.17;3.40;;;23.00;61.30;;;;;;6251191;28;20230;-82
2023/08/13 07:28:28;;;;;;;4.67;3.50;;;23.40;61.10;;;;;;6249637;28;20238;-82
2023/08/13 07:31:33;;;;;;;6.43;3.03;;;23.40;59.50;;;;;;6257036;28;20298;-83
2023/08/13 07:34:37;;;;;;;3.17;3.07;;;23.40;60.10;;;;;;6260629;28;20384;-82
2023/08/13 07:37:40;;;;;;;3.53;3.40;;;23.30;60.60;;;;;;6261411;28;20791;-83
2023/08/13 07:40:43;;;;;;;3.33;3.13;;;23.30;60.20;;;;;;6254423;28;20391;-82
2023/08/13 07:43:46;;;;;;;3.97;3.57;;;23.40;60.70;;;;;;6262673;28;20245;-80
2023/08/13 07:46:54;;;;;;;3.43;3.20;;;23.50;59.60;;;;;;6261354;28;20246;-81
2023/08/13 07:49:57;;;;;;;3.70;3.40;;;23.40;60.40;;;;;;6261096;28;20249;-83
2023/08/13 07:53:00;;;;;;;3.77;3.40;;;23.10;60.00;;;;;;6261518;28;20321;-84
2023/08/13 07:56:03;;;;;;;4.10;3.70;;;22.90;61.10;;;;;;6262530;28;20329;-81
2023/08/13 07:59:06;;;;;;;4.47;4.07;;;22.90;61.50;;;;;;6251945;28;20238;-82
2023/08/13 08:02:11;;;;;;;6.67;3.80;;;22.50;61.60;;;;;;6269188;28;20242;-81
2023/08/13 08:05:16;;;;;;;3.60;3.30;;;22.60;61.80;;;;;;6263248;28;20613;-80
2023/08/13 08:08:19;;;;;;;3.50;3.30;;;22.60;61.20;;;;;;6260025;28;20249;-83
2023/08/13 08:11:22;;;;;;;4.37;3.60;;;22.70;60.90;;;;;;6262289;28;20684;-79
2023/08/13 08:14:25;;;;;;;4.10;3.80;;;22.70;61.20;;;;;;6262705;28;20359;-81
2023/08/13 08:17:30;;;;;;;4.50;3.67;;;22.80;60.10;;;;;;6257144;28;20238;-80
2023/08/13 08:20:33;;;;;;;3.77;3.43;;;22.60;59.60;;;;;;6241734;28;20451;-81
2023/08/13 08:23:36;;;;;;;5.07;3.30;;;22.60;60.20;;;;;;6249759;28;20708;-81
2023/08/13 08:26:39;;;;;;;4.43;3.87;;;22.60;60.60;;;;;;6246956;28;20237;-83
2023/08/13 08:29:42;;;;;;;3.57;3.37;;;22.70;60.30;;;;;;6244135;28;20302;-83
2023/08/13 08:32:48;;;;;;;3.20;3.00;;;22.80;58.70;;;;;;6249540;28;20243;-84
2023/08/13 08:35:51;;;;;;;4.40;3.30;;;22.80;59.10;;;;;;6246996;28;20292;-84
2023/08/13 08:38:54;;;;;;;4.07;3.77;;;22.90;58.40;;;;;;6230007;28;20325;-83
2023/08/13 08:41:58;;;;;;;3.70;3.40;;;22.80;58.30;;;;;;6255750;28;20301;-82
2023/08/13 08:45:01;;;;;;;6.87;3.73;;;22.90;58.30;;;;;;6247856;28;20873;-81
2023/08/13 08:48:07;;;;;;;7.73;4.30;;;23.00;57.80;;;;;;6242124;28;20239;-81
2023/08/13 08:51:12;;;;;;;3.80;2.93;;;23.20;57.10;;;;;;6264507;28;20746;-85
2023/08/13 08:54:16;;;;;;;4.77;3.23;;;23.30;57.10;;;;;;6249055;28;20242;-83
2023/08/13 08:57:19;;;;;;;3.60;3.30;;;23.60;56.80;;;;;;6241387;28;20639;-82
2023/08/13 09:00:56;;;;;;;5.17;2.90;;;23.80;56.50;;;;;;6235755;28;20758;-85
2023/08/13 09:04:04;;;;;;;4.23;3.13;;;23.90;55.50;;;;;;6226217;28;20299;-83
2023/08/13 09:07:07;;;;;;;3.30;2.90;;;23.90;55.50;;;;;;6202356;28;20309;-85
2023/08/13 09:10:11;;;;;;;6.37;3.73;;;23.80;55.70;;;;;;6211584;28;20235;-85
2023/08/13 09:13:15;;;;;;;5.60;3.40;;;23.90;55.40;;;;;;6218199;28;20724;-84
2023/08/13 09:16:19;;;;;;;4.13;3.80;;;24.00;54.50;;;;;;6209966;28;20274;-81
2023/08/13 09:19:26;;;;;;;5.50;3.93;;;23.70;54.80;;;;;;6225117;28;20231;-84
2023/08/13 09:22:33;;;;;;;3.40;3.20;;;23.80;55.50;;;;;;6235715;28;20714;-82
2023/08/13 09:25:36;;;;;;;4.87;4.13;;;24.00;54.50;;;;;;6238447;28;20254;-82
2023/08/13 09:28:43;;;;;;;3.80;3.60;;;24.00;54.60;;;;;;6234902;28;20262;-81
2023/08/13 09:31:47;;;;;;;5.73;3.70;;;23.80;54.40;;;;;;6234677;28;20624;-82
2023/08/13 09:34:53;;;;;;;3.73;3.53;;;23.60;55.00;;;;;;6232272;28;20239;-83
2023/08/13 09:37:56;;;;;;;3.87;3.33;;;23.80;55.30;;;;;;6236787;28;20265;-79
2023/08/13 09:41:00;;;;;;;4.10;3.73;;;23.80;55.40;;;;;;6238102;28;20315;-81
2023/08/13 09:44:09;;;;;;;4.13;3.80;;;24.00;54.30;;;;;;6236491;28;20226;-83
2023/08/13 09:47:17;;;;;;;5.00;4.00;;;24.10;53.60;;;;;;6238348;28;20649;-81
2023/08/13 09:50:25;;;;;;;3.67;3.30;;;24.00;53.30;;;;;;6234340;28;20246;-79
2023/08/13 09:53:30;;;;;;;3.33;3.10;;;24.30;53.30;;;;;;6232060;28;20251;-81
2023/08/13 09:56:36;;;;;;;5.27;3.03;;;24.40;52.30;;;;;;6236427;28;20304;-83
2023/08/13 09:59:40;;;;;;;4.20;3.70;;;24.50;52.80;;;;;;6236088;28;20235;-82
2023/08/13 10:02:44;;;;;;;3.97;3.30;;;24.70;53.10;;;;;;6228057;28;20730;-82
2023/08/13 10:05:50;;;;;;;4.97;3.10;;;24.80;52.60;;;;;;6229256;28;20816;-81
2023/08/13 10:08:53;;;;;;;4.60;3.60;;;25.00;51.50;;;;;;6234621;28;20246;-81
2023/08/13 10:11:57;;;;;;;4.17;3.70;;;25.00;52.20;;;;;;6231942;28;20274;-82
2023/08/13 10:15:02;;;;;;;5.53;3.77;;;25.30;52.00;;;;;;6236438;28;20231;-80
2023/08/13 10:18:05;;;;;;;2.90;2.70;;;25.50;51.60;;;;;;6234081;28;20341;-83
2023/08/13 10:21:13;;;;;;;3.73;3.07;;;25.70;51.80;;;;;;6241092;28;20273;-81
2023/08/13 10:24:16;;;;;;;4.87;3.30;;;25.60;51.60;;;;;;6235718;28;20377;-83
2023/08/13 10:27:23;;;;;;;9.63;3.77;;;25.30;50.90;;;;;;6234578;28;20234;-81
2023/08/13 10:30:26;;;;;;;3.47;3.07;;;25.00;51.20;;;;;;6234160;28;20322;-83
2023/08/13 10:33:30;;;;;;;3.60;3.33;;;25.20;50.50;;;;;;6233093;28;20245;-83
2023/08/13 10:36:49;;;;;;;3.47;3.17;;;25.40;50.20;;;;;;6232687;28;20790;-84
2023/08/13 10:40:08;;;;;;;3.13;2.97;;;25.40;49.70;;;;;;6223672;28;20245;-83
2023/08/13 10:43:21;;;;;;;3.60;3.40;;;25.60;50.20;;;;;;6234882;28;20238;-82
2023/08/13 10:46:41;;;;;;;3.10;2.90;;;25.60;50.00;;;;;;6233566;28;20316;-82
2023/08/13 10:49:44;;;;;;;3.90;2.87;;;25.50;50.10;;;;;;6234377;28;20284;-81
2023/08/13 10:52:50;;;;;;;3.57;3.27;;;25.60;51.20;;;;;;6233058;28;20234;-78
2023/08/13 10:55:55;;;;;;;3.77;3.20;;;25.80;50.80;;;;;;6227894;28;20231;-79
2023/08/13 10:59:02;;;;;;;3.47;3.00;;;26.00;50.40;;;;;;6217817;28;20301;-81
2023/08/13 11:02:15;;;;;;;5.33;3.00;;;26.20;49.70;;;;;;6234530;28;20262;-79
2023/08/13 11:05:22;;;;;;;3.63;3.37;;;26.40;50.70;;;;;;6223099;28;20243;-80
2023/08/13 11:08:27;;;;;;;3.70;3.30;;;26.00;48.80;;;;;;6205204;28;20243;-84
2023/08/13 11:11:50;;;;;;;3.37;3.07;;;25.90;49.30;;;;;;6232015;28;20263;-79
2023/08/13 11:14:53;;;;;;;3.03;2.90;;;26.00;49.90;;;;;;6236053;28;20327;-81
2023/08/13 11:17:57;;;;;;;3.30;3.07;;;26.10;50.40;;;;;;6232780;28;20616;-81
2023/08/13 11:21:01;;;;;;;3.93;3.50;;;26.40;48.80;;;;;;6206498;28;20894;-81
2023/08/13 11:24:10;;;;;;;3.67;3.47;;;26.40;50.20;;;;;;6209608;28;20251;-80
2023/08/13 11:27:13;;;;;;;3.63;2.90;;;26.00;49.60;;;;;;6214271;28;20252;-82
2023/08/13 11:30:16;;;;;;;3.83;3.53;;;25.90;50.30;;;;;;6212057;28;20227;-81
2023/08/13 11:33:20;;;;;;;4.37;4.07;;;26.20;49.70;;;;;;6212232;28;20235;-80
2023/08/13 11:36:23;;;;;;;3.47;3.17;;;26.50;50.00;;;;;;6206261;28;20231;-81
2023/08/13 11:39:28;;;;;;;3.63;3.30;;;26.60;49.00;;;;;;6210358;28;20715;-81
2023/08/13 11:42:31;;;;;;;3.57;3.37;;;26.50;48.80;;;;;;6210682;28;20243;-81
2023/08/13 11:45:34;;;;;;;3.03;2.87;;;26.70;48.60;;;;;;6211296;28;20727;-78
2023/08/13 11:48:37;;;;;;;4.50;3.80;;;26.40;48.60;;;;;;6212770;28;20243;-81
2023/08/13 11:51:42;;;;;;;3.90;3.60;;;26.50;48.40;;;;;;6215882;28;20784;-80
2023/08/13 11:54:47;;;;;;;3.47;3.20;;;26.70;48.40;;;;;;6208656;28;20250;-80
2023/08/13 11:57:50;;;;;;;3.43;3.23;;;27.00;48.20;;;;;;6215683;28;20250;-80
2023/08/13 12:00:53;;;;;;;3.23;3.10;;;27.20;49.30;;;;;;6215477;28;20840;-79
2023/08/13 12:03:56;;;;;;;3.73;2.80;;;27.40;47.90;;;;;;6208173;28;20227;-81
2023/08/13 12:07:04;;;;;;;2.50;2.43;;;27.40;47.00;;;;;;6213537;28;20740;-80
2023/08/13 12:10:10;;;;;;;3.30;3.00;;;27.30;47.40;;;;;;6216232;28;20254;-81
2023/08/13 12:13:13;;;;;;;4.07;3.03;;;26.90;47.10;;;;;;6219882;28;20242;-79
2023/08/13 12:16:16;;;;;;;3.07;2.87;;;26.80;47.90;;;;;;6211174;28;20326;-81
2023/08/13 12:19:19;;;;;;;3.13;2.93;;;26.90;47.50;;;;;;6232622;28;20243;-81
2023/08/13 12:22:23;;;;;;;2.40;2.30;;;27.00;48.20;;;;;;6234752;28;20234;-81
2023/08/13 12:25:28;;;;;;;2.43;2.33;;;27.20;47.70;;;;;;6232913;28;20249;-79
2023/08/13 12:28:31;;;;;;;2.53;2.43;;;27.50;47.40;;;;;;6239735;28;20716;-79
2023/08/13 12:31:35;;;;;;;3.83;3.20;;;27.70;47.10;;;;;;6239125;28;20250;-78
2023/08/13 12:34:38;;;;;;;2.90;2.70;;;27.50;46.40;;;;;;6237066;28;20234;-80
2023/08/13 12:37:41;;;;;;;3.47;3.17;;;27.40;47.60;;;;;;6240029;28;20886;-80
2023/08/13 12:40:46;;;;;;;3.40;3.20;;;27.40;47.20;;;;;;6235703;28;20234;-78
2023/08/13 12:43:49;;;;;;;5.53;3.23;;;27.50;48.00;;;;;;6239980;28;20234;-80
2023/08/13 12:46:52;;;;;;;3.70;3.43;;;27.30;47.10;;;;;;6241048;28;20250;-81
2023/08/13 12:49:55;;;;;;;3.10;3.00;;;27.10;48.30;;;;;;6227863;28;20360;-81
2023/08/13 12:53:00;;;;;;;3.27;3.07;;;27.20;48.00;;;;;;6235386;28;20226;-80
2023/08/13 12:56:05;;;;;;;3.20;3.00;;;26.90;48.10;;;;;;6242034;28;20254;-79
2023/08/13 12:59:08;;;;;;;3.70;2.97;;;26.60;48.80;;;;;;6238762;28;20246;-79
2023/08/13 13:02:11;;;;;;;3.60;3.40;;;26.40;48.60;;;;;;6264958;28;20226;-76
2023/08/13 13:05:14;;;;;;;3.07;2.97;;;26.40;49.00;;;;;;6272083;28;20230;-75
2023/08/13 13:08:17;;;;;;;3.23;3.03;;;26.80;48.20;;;;;;6267673;28;20231;-76
2023/08/13 13:11:22;;;;;;;3.07;2.87;;;27.00;48.00;;;;;;6263102;28;20226;-82
2023/08/13 13:14:25;;;;;;;3.13;2.93;;;26.90;46.30;;;;;;6271770;28;20223;-79
2023/08/13 13:17:33;;;;;;;3.83;3.10;;;26.70;46.50;;;;;;6259758;28;20299;-79
2023/08/13 13:20:39;;;;;;;3.67;3.47;;;26.70;47.30;;;;;;6265937;28;20286;-81
2023/08/13 13:23:42;;;;;;;2.63;2.60;;;26.90;47.10;;;;;;6265702;28;20239;-79
2023/08/13 13:26:47;;;;;;;3.47;2.77;;;26.90;47.60;;;;;;6269272;28;20235;-81
2023/08/13 13:29:52;;;;;;;3.00;2.70;;;27.00;47.60;;;;;;6268466;28;20230;-81
2023/08/13 13:32:55;;;;;;;3.57;3.27;;;27.20;48.20;;;;;;6272434;28;20230;-79
2023/08/13 13:35:58;;;;;;;3.13;2.93;;;27.30;46.60;;;;;;6269985;28;20315;-81
2023/08/13 13:39:01;;;;;;;3.63;3.33;;;27.30;47.40;;;;;;6270608;28;20324;-77
2023/08/13 13:42:06;;;;;;;2.90;2.80;;;27.30;48.00;;;;;;6271676;28;20226;-78
2023/08/13 13:45:10;;;;;;;2.87;2.77;;;27.30;47.50;;;;;;6272016;28;20246;-79
2023/08/13 13:48:13;;;;;;;3.47;3.17;;;27.00;48.00;;;;;;6269419;28;20230;-79
2023/08/13 13:51:16;;;;;;;3.13;3.00;;;27.00;47.40;;;;;;6270275;28;20253;-79
2023/08/13 13:54:19;;;;;;;3.37;3.17;;;26.90;48.20;;;;;;6266980;28;20241;-79
2023/08/13 13:57:25;;;;;;;3.00;2.80;;;26.50;48.80;;;;;;6260045;28;20292;-79
2023/08/13 14:00:29;;;;;;;3.97;3.17;;;26.70;48.50;;;;;;6242573;28;20239;-81
2023/08/13 14:03:32;;;;;;;3.47;3.17;;;26.80;48.10;;;;;;6242900;28;20226;-79
2023/08/13 14:06:35;;;;;;;3.40;3.10;;;26.90;47.70;;;;;;6243790;28;20266;-80
2023/08/13 14:09:39;;;;;;;3.20;3.00;;;27.10;47.70;;;;;;6246406;28;20239;-78
2023/08/13 14:12:43;;;;;;;5.23;3.10;;;27.20;47.90;;;;;;6248940;28;20238;-79
2023/08/13 14:15:46;;;;;;;3.47;3.30;;;27.20;48.60;;;;;;6249710;28;20273;-79
2023/08/13 14:18:49;;;;;;;3.13;2.93;;;27.10;48.30;;;;;;6226606;28;20239;-79
2023/08/13 14:21:53;;;;;;;3.17;2.67;;;27.20;48.30;;;;;;6245708;28;20723;-78
2023/08/13 14:24:56;;;;;;;3.43;3.23;;;26.90;48.20;;;;;;6249823;28;20890;-80
2023/08/13 14:28:02;;;;;;;3.17;2.87;;;27.00;47.50;;;;;;6244047;28;20844;-80
2023/08/13 14:31:06;;;;;;;2.40;2.30;;;27.20;48.40;;;;;;6249940;28;20254;-81
2023/08/13 14:34:09;;;;;;;3.43;3.00;;;27.20;47.60;;;;;;6250479;28;20293;-79
2023/08/13 14:37:12;;;;;;;2.97;2.77;;;27.00;47.70;;;;;;6240205;28;20241;-78
2023/08/13 14:40:15;;;;;;;3.60;3.30;;;26.90;47.70;;;;;;6249534;28;20226;-81
2023/08/13 14:43:21;;;;;;;2.73;2.57;;;27.00;48.60;;;;;;6246140;28;20242;-81
2023/08/13 14:46:24;;;;;;;2.93;2.83;;;27.10;47.70;;;;;;6247917;28;20915;-81
2023/08/13 14:49:27;;;;;;;3.70;3.40;;;27.20;48.20;;;;;;6246106;28;20253;-80
2023/08/13 14:52:30;;;;;;;3.20;2.83;;;27.20;48.70;;;;;;6244377;28;20789;-77
2023/08/13 14:55:34;;;;;;;3.10;2.90;;;27.30;48.20;;;;;;6246177;28;20234;-78
2023/08/13 14:58:38;;;;;;;2.87;2.73;;;27.40;48.60;;;;;;6246696;28;20234;-79
2023/08/13 15:01:44;;;;;;;2.50;2.40;;;27.50;48.20;;;;;;6249484;28;20241;-76
2023/08/13 15:04:47;;;;;;;2.57;2.47;;;27.50;48.30;;;;;;6250461;28;20238;-80
2023/08/13 15:07:50;;;;;;;3.67;2.83;;;27.40;47.50;;;;;;6246620;28;21498;-79
2023/08/13 15:10:53;;;;;;;3.10;3.00;;;27.40;47.30;;;;;;6251839;28;20239;-77
2023/08/13 15:13:58;;;;;;;3.10;2.70;;;27.30;46.80;;;;;;6254567;28;20810;-79
2023/08/13 15:17:01;;;;;;;3.10;2.90;;;27.20;47.00;;;;;;6246579;28;20242;-77
2023/08/13 15:20:04;;;;;;;3.37;2.70;;;27.00;47.00;;;;;;6237377;28;20234;-78
2023/08/13 15:23:07;;;;;;;3.37;3.10;;;26.80;47.50;;;;;;6233593;28;20633;-80
2023/08/13 15:26:11;;;;;;;3.70;2.63;;;26.80;48.00;;;;;;6243780;28;20319;-80
2023/08/13 15:29:16;;;;;;;2.83;2.73;;;26.60;48.10;;;;;;6233654;28;20246;-78
2023/08/13 15:32:19;;;;;;;3.17;2.97;;;26.60;48.10;;;;;;6242176;28;20242;-78
2023/08/13 15:35:22;;;;;;;2.90;2.80;;;26.60;48.80;;;;;;6239002;28;20227;-78
2023/08/13 15:38:26;;;;;;;3.43;3.23;;;26.70;49.10;;;;;;6241095;28;20661;-81
2023/08/13 15:41:29;;;;;;;3.57;3.27;;;26.80;48.30;;;;;;6240078;28;20258;-79
2023/08/13 15:44:34;;;;;;;3.40;3.20;;;26.70;48.40;;;;;;6231004;28;20293;-79
2023/08/13 15:47:37;;;;;;;2.93;2.63;;;26.70;48.30;;;;;;6238239;28;20254;-80
2023/08/13 15:50:40;;;;;;;3.07;2.70;;;26.70;49.40;;;;;;6242718;28;20624;-79
2023/08/13 15:53:44;;;;;;;4.07;3.80;;;26.80;49.30;;;;;;6239987;28;20243;-78
2023/08/13 15:56:47;;;;;;;3.20;3.03;;;26.50;49.30;;;;;;6242087;28;20799;-79
2023/08/13 15:59:51;;;;;;;3.90;3.57;;;26.50;49.30;;;;;;6241659;28;20780;-79
2023/08/13 16:02:56;;;;;;;3.67;3.33;;;26.60;49.70;;;;;;6237510;28;20265;-76